This is the latest recevied weather packets stored in our database for station/object IZ5RIE-13. If no packets are shown the sender has not sent any weather packets the latest 10 day(s).
| Time | Temp. | Humidity | Pressure | Rain* | Wind** | Luminosity | Snow |
|---|---|---|---|---|---|---|---|
| 1788242671 | 27.22° C | 100% | 1018.5 hPa | - | - | - | - |
| 1788242640 | 26.67° C | 100% | 1018.5 hPa | - | - | - | - |
| 1788242609 | 26.67° C | 100% | 1018.5 hPa | - | - | - | - |
| 1788242577 | 26.67° C | 100% | 1018.5 hPa | - | - | - | - |
| 1788242548 | 26.67° C | 100% | 1018.5 hPa | - | - | - | - |
| 1788242517 | 26.67° C | 100% | 1018.6 hPa | - | - | - | - |
| 1788241616 | 24.44° C | 100% | 1018.3 hPa | - | - | - | - |
| 1788241585 | 24.44° C | 100% | 1018.3 hPa | - | - | - | - |
| 1788240756 | 23.89° C | 100% | 1018.2 hPa | - | - | - | - |
| 1788240727 | 23.89° C | 100% | 1018.3 hPa | - | - | - | - |
| 1788240666 | 23.89° C | 100% | 1018.2 hPa | - | - | - | - |
| 1788239824 | 23.33° C | 100% | 1018.2 hPa | - | - | - | - |
| 1788239812 | 23.89° C | 100% | 1018.2 hPa | - | - | - | - |
| 1788239786 | 23.89° C | 100% | 1018.2 hPa | - | - | - | - |
| 1788239784 | 23.33° C | 100% | 1018.2 hPa | - | - | - | - |
| 1788239752 | 23.89° C | 100% | 1018.2 hPa | - | - | - | - |
| 1788239700 | 23.33° C | 100% | 1018.3 hPa | - | - | - | - |
| 1788239665 | 23.33° C | 100% | 1018.3 hPa | - | - | - | - |
| 1788239634 | 23.33° C | 100% | 1018.2 hPa | - | - | - | - |
| 1788238734 | 23.33° C | 100% | 1018.1 hPa | - | - | - | - |
| 1788237834 | 23.33° C | 100% | 1018.1 hPa | - | - | - | - |
| 1788236934 | 23.33° C | 100% | 1018.1 hPa | - | - | - | - |
| 1788236034 | 23.33° C | 100% | 1018.1 hPa | - | - | - | - |
| 1788235133 | 23.33° C | 100% | 1018 hPa | - | - | - | - |
| 1788234233 | 23.33° C | 100% | 1018.1 hPa | - | - | - | - |
* Rain since midnight (hover to see other rain measurements)
** Current wind speed in m/s (hover to see current wind gust speed)